sensor_id;sensor_type;location;lat;lon;timestamp;P1;durP1;ratioP1;P2;durP2;ratioP2
42332;SDS011;27984;51.476;5.702;2024-03-17T00:00:51;12.48;;;7.22;;
42332;SDS011;27984;51.476;5.702;2024-03-17T00:03:19;16.55;;;7.20;;
42332;SDS011;27984;51.476;5.702;2024-03-17T00:05:45;10.65;;;6.95;;
42332;SDS011;27984;51.476;5.702;2024-03-17T00:08:11;13.13;;;7.25;;
42332;SDS011;27984;51.476;5.702;2024-03-17T00:10:37;15.10;;;7.63;;
42332;SDS011;27984;51.476;5.702;2024-03-17T00:13:03;11.50;;;7.32;;
42332;SDS011;27984;51.476;5.702;2024-03-17T00:15:29;13.40;;;7.38;;
42332;SDS011;27984;51.476;5.702;2024-03-17T00:17:55;16.45;;;6.97;;
42332;SDS011;27984;51.476;5.702;2024-03-17T00:20:21;11.80;;;7.18;;
42332;SDS011;27984;51.476;5.702;2024-03-17T00:22:47;12.13;;;6.97;;
42332;SDS011;27984;51.476;5.702;2024-03-17T00:25:13;11.10;;;7.32;;
42332;SDS011;27984;51.476;5.702;2024-03-17T00:27:39;12.95;;;7.40;;
42332;SDS011;27984;51.476;5.702;2024-03-17T00:30:08;14.02;;;7.55;;
42332;SDS011;27984;51.476;5.702;2024-03-17T00:32:37;11.73;;;7.32;;
42332;SDS011;27984;51.476;5.702;2024-03-17T00:35:03;11.32;;;7.70;;
42332;SDS011;27984;51.476;5.702;2024-03-17T00:37:30;11.23;;;7.32;;
42332;SDS011;27984;51.476;5.702;2024-03-17T00:39:55;10.45;;;7.22;;
42332;SDS011;27984;51.476;5.702;2024-03-17T00:42:22;14.50;;;7.90;;
42332;SDS011;27984;51.476;5.702;2024-03-17T00:44:48;14.27;;;7.80;;
42332;SDS011;27984;51.476;5.702;2024-03-17T00:47:14;14.90;;;8.55;;
42332;SDS011;27984;51.476;5.702;2024-03-17T00:49:40;11.68;;;8.00;;
42332;SDS011;27984;51.476;5.702;2024-03-17T00:52:06;10.88;;;7.65;;
42332;SDS011;27984;51.476;5.702;2024-03-17T00:54:32;16.52;;;7.97;;
42332;SDS011;27984;51.476;5.702;2024-03-17T00:56:58;16.08;;;7.88;;
42332;SDS011;27984;51.476;5.702;2024-03-17T00:59:24;10.52;;;8.15;;
42332;SDS011;27984;51.476;5.702;2024-03-17T01:01:51;13.75;;;7.80;;
42332;SDS011;27984;51.476;5.702;2024-03-17T01:04:17;15.30;;;7.50;;
42332;SDS011;27984;51.476;5.702;2024-03-17T01:06:42;13.48;;;8.00;;
42332;SDS011;27984;51.476;5.702;2024-03-17T01:09:08;14.32;;;8.93;;
42332;SDS011;27984;51.476;5.702;2024-03-17T01:11:34;13.40;;;8.38;;
42332;SDS011;27984;51.476;5.702;2024-03-17T01:14:00;12.40;;;7.90;;
42332;SDS011;27984;51.476;5.702;2024-03-17T01:16:26;13.88;;;8.60;;
42332;SDS011;27984;51.476;5.702;2024-03-17T01:18:52;13.52;;;8.70;;
42332;SDS011;27984;51.476;5.702;2024-03-17T01:21:19;13.45;;;7.95;;
42332;SDS011;27984;51.476;5.702;2024-03-17T01:23:47;15.15;;;8.27;;
42332;SDS011;27984;51.476;5.702;2024-03-17T01:26:14;10.95;;;7.93;;
42332;SDS011;27984;51.476;5.702;2024-03-17T01:28:40;13.60;;;8.25;;
42332;SDS011;27984;51.476;5.702;2024-03-17T01:31:06;17.15;;;8.60;;
42332;SDS011;27984;51.476;5.702;2024-03-17T01:33:32;12.32;;;8.80;;
42332;SDS011;27984;51.476;5.702;2024-03-17T01:35:59;12.35;;;8.60;;
42332;SDS011;27984;51.476;5.702;2024-03-17T01:38:25;12.70;;;8.95;;
42332;SDS011;27984;51.476;5.702;2024-03-17T01:40:51;15.85;;;9.45;;
42332;SDS011;27984;51.476;5.702;2024-03-17T01:43:17;17.55;;;9.35;;
42332;SDS011;27984;51.476;5.702;2024-03-17T01:45:43;17.20;;;9.98;;
42332;SDS011;27984;51.476;5.702;2024-03-17T01:48:11;16.85;;;9.77;;
42332;SDS011;27984;51.476;5.702;2024-03-17T01:50:40;14.10;;;10.15;;
42332;SDS011;27984;51.476;5.702;2024-03-17T01:53:06;17.23;;;10.27;;
42332;SDS011;27984;51.476;5.702;2024-03-17T01:55:37;15.00;;;9.98;;
42332;SDS011;27984;51.476;5.702;2024-03-17T01:58:04;14.50;;;10.60;;
42332;SDS011;27984;51.476;5.702;2024-03-17T02:00:35;17.05;;;10.77;;
42332;SDS011;27984;51.476;5.702;2024-03-17T02:03:07;23.05;;;12.63;;
42332;SDS011;27984;51.476;5.702;2024-03-17T02:05:34;23.38;;;14.43;;
42332;SDS011;27984;51.476;5.702;2024-03-17T02:08:02;21.05;;;12.80;;
42332;SDS011;27984;51.476;5.702;2024-03-17T02:10:28;23.55;;;12.82;;
42332;SDS011;27984;51.476;5.702;2024-03-17T02:12:54;18.98;;;12.45;;
42332;SDS011;27984;51.476;5.702;2024-03-17T02:15:20;24.88;;;13.35;;
42332;SDS011;27984;51.476;5.702;2024-03-17T02:17:46;23.40;;;13.65;;
42332;SDS011;27984;51.476;5.702;2024-03-17T02:20:12;22.08;;;12.77;;
42332;SDS011;27984;51.476;5.702;2024-03-17T02:22:39;23.83;;;12.88;;
42332;SDS011;27984;51.476;5.702;2024-03-17T02:25:05;21.13;;;13.57;;
42332;SDS011;27984;51.476;5.702;2024-03-17T02:27:37;21.58;;;13.07;;
42332;SDS011;27984;51.476;5.702;2024-03-17T02:30:04;17.55;;;12.68;;
42332;SDS011;27984;51.476;5.702;2024-03-17T02:32:34;18.85;;;13.07;;
42332;SDS011;27984;51.476;5.702;2024-03-17T02:35:00;21.27;;;13.10;;
42332;SDS011;27984;51.476;5.702;2024-03-17T02:37:26;16.42;;;12.73;;
42332;SDS011;27984;51.476;5.702;2024-03-17T02:39:52;23.77;;;14.13;;
42332;SDS011;27984;51.476;5.702;2024-03-17T02:42:18;20.90;;;13.57;;
42332;SDS011;27984;51.476;5.702;2024-03-17T02:44:44;18.67;;;13.88;;
42332;SDS011;27984;51.476;5.702;2024-03-17T02:47:11;26.17;;;13.50;;
42332;SDS011;27984;51.476;5.702;2024-03-17T02:49:39;25.15;;;13.93;;
42332;SDS011;27984;51.476;5.702;2024-03-17T02:52:08;18.70;;;12.82;;
42332;SDS011;27984;51.476;5.702;2024-03-17T02:54:34;19.35;;;13.38;;
42332;SDS011;27984;51.476;5.702;2024-03-17T02:57:01;22.17;;;13.23;;
42332;SDS011;27984;51.476;5.702;2024-03-17T02:59:27;19.80;;;13.65;;
42332;SDS011;27984;51.476;5.702;2024-03-17T03:01:53;19.33;;;12.82;;
42332;SDS011;27984;51.476;5.702;2024-03-17T03:04:19;18.50;;;13.35;;
42332;SDS011;27984;51.476;5.702;2024-03-17T03:06:45;20.48;;;14.27;;
42332;SDS011;27984;51.476;5.702;2024-03-17T03:09:11;19.50;;;13.48;;
42332;SDS011;27984;51.476;5.702;2024-03-17T03:11:41;18.27;;;14.02;;
42332;SDS011;27984;51.476;5.702;2024-03-17T03:14:08;19.65;;;13.95;;
42332;SDS011;27984;51.476;5.702;2024-03-17T03:16:34;20.35;;;14.02;;
42332;SDS011;27984;51.476;5.702;2024-03-17T03:19:00;20.65;;;14.30;;
42332;SDS011;27984;51.476;5.702;2024-03-17T03:21:26;22.35;;;14.43;;
42332;SDS011;27984;51.476;5.702;2024-03-17T03:23:52;19.20;;;14.25;;
42332;SDS011;27984;51.476;5.702;2024-03-17T03:26:18;20.00;;;13.85;;
42332;SDS011;27984;51.476;5.702;2024-03-17T03:28:44;22.10;;;13.75;;
42332;SDS011;27984;51.476;5.702;2024-03-17T03:31:10;22.08;;;14.52;;
42332;SDS011;27984;51.476;5.702;2024-03-17T03:33:38;20.20;;;14.27;;
42332;SDS011;27984;51.476;5.702;2024-03-17T03:36:11;21.48;;;15.13;;
42332;SDS011;27984;51.476;5.702;2024-03-17T03:38:37;20.25;;;14.43;;
42332;SDS011;27984;51.476;5.702;2024-03-17T03:41:13;19.65;;;14.20;;
42332;SDS011;27984;51.476;5.702;2024-03-17T03:43:40;21.27;;;14.10;;
42332;SDS011;27984;51.476;5.702;2024-03-17T03:46:06;19.67;;;14.27;;
42332;SDS011;27984;51.476;5.702;2024-03-17T03:48:33;21.98;;;14.55;;
42332;SDS011;27984;51.476;5.702;2024-03-17T03:51:03;19.23;;;14.32;;
42332;SDS011;27984;51.476;5.702;2024-03-17T03:53:29;21.00;;;14.70;;
42332;SDS011;27984;51.476;5.702;2024-03-17T03:55:55;20.30;;;14.48;;
42332;SDS011;27984;51.476;5.702;2024-03-17T03:58:21;21.98;;;14.55;;
42332;SDS011;27984;51.476;5.702;2024-03-17T04:00:47;19.75;;;13.95;;
42332;SDS011;27984;51.476;5.702;2024-03-17T04:03:13;23.25;;;14.35;;
42332;SDS011;27984;51.476;5.702;2024-03-17T04:05:39;20.77;;;15.52;;
42332;SDS011;27984;51.476;5.702;2024-03-17T04:08:05;19.83;;;13.82;;
42332;SDS011;27984;51.476;5.702;2024-03-17T04:10:31;21.73;;;14.73;;
42332;SDS011;27984;51.476;5.702;2024-03-17T04:12:57;20.58;;;14.40;;
42332;SDS011;27984;51.476;5.702;2024-03-17T04:15:23;25.00;;;15.30;;
42332;SDS011;27984;51.476;5.702;2024-03-17T04:17:49;19.23;;;14.35;;
42332;SDS011;27984;51.476;5.702;2024-03-17T04:20:15;18.75;;;14.55;;
42332;SDS011;27984;51.476;5.702;2024-03-17T04:22:41;23.08;;;14.23;;
42332;SDS011;27984;51.476;5.702;2024-03-17T04:25:11;18.42;;;14.20;;
42332;SDS011;27984;51.476;5.702;2024-03-17T04:27:38;18.52;;;14.57;;
42332;SDS011;27984;51.476;5.702;2024-03-17T04:30:04;20.45;;;14.43;;
42332;SDS011;27984;51.476;5.702;2024-03-17T04:32:31;20.88;;;14.50;;
42332;SDS011;27984;51.476;5.702;2024-03-17T04:34:57;17.92;;;13.77;;
42332;SDS011;27984;51.476;5.702;2024-03-17T04:37:23;22.52;;;14.98;;
42332;SDS011;27984;51.476;5.702;2024-03-17T04:39:49;19.50;;;14.70;;
42332;SDS011;27984;51.476;5.702;2024-03-17T04:42:16;19.95;;;15.25;;
42332;SDS011;27984;51.476;5.702;2024-03-17T04:44:43;18.15;;;14.85;;
42332;SDS011;27984;51.476;5.702;2024-03-17T04:47:09;17.83;;;14.43;;
42332;SDS011;27984;51.476;5.702;2024-03-17T04:49:42;22.40;;;14.82;;
42332;SDS011;27984;51.476;5.702;2024-03-17T04:52:09;24.13;;;15.50;;
42332;SDS011;27984;51.476;5.702;2024-03-17T04:54:35;21.15;;;15.52;;
42332;SDS011;27984;51.476;5.702;2024-03-17T04:57:01;20.45;;;15.48;;
42332;SDS011;27984;51.476;5.702;2024-03-17T04:59:27;24.13;;;15.10;;
42332;SDS011;27984;51.476;5.702;2024-03-17T05:01:54;23.98;;;14.70;;
42332;SDS011;27984;51.476;5.702;2024-03-17T05:04:20;21.08;;;15.82;;
42332;SDS011;27984;51.476;5.702;2024-03-17T05:06:46;21.20;;;15.38;;
42332;SDS011;27984;51.476;5.702;2024-03-17T05:09:15;21.45;;;15.13;;
42332;SDS011;27984;51.476;5.702;2024-03-17T05:11:41;21.63;;;14.55;;
42332;SDS011;27984;51.476;5.702;2024-03-17T05:14:07;21.27;;;14.95;;
42332;SDS011;27984;51.476;5.702;2024-03-17T05:16:33;21.92;;;14.60;;
42332;SDS011;27984;51.476;5.702;2024-03-17T05:19:00;22.02;;;15.32;;
42332;SDS011;27984;51.476;5.702;2024-03-17T05:21:26;19.98;;;14.13;;
42332;SDS011;27984;51.476;5.702;2024-03-17T05:23:55;19.98;;;14.25;;
42332;SDS011;27984;51.476;5.702;2024-03-17T05:26:22;18.75;;;13.93;;
42332;SDS011;27984;51.476;5.702;2024-03-17T05:28:49;18.52;;;13.85;;
42332;SDS011;27984;51.476;5.702;2024-03-17T05:31:15;19.40;;;14.57;;
42332;SDS011;27984;51.476;5.702;2024-03-17T05:33:42;18.90;;;14.52;;
42332;SDS011;27984;51.476;5.702;2024-03-17T05:36:08;20.77;;;14.52;;
42332;SDS011;27984;51.476;5.702;2024-03-17T05:38:34;24.70;;;14.43;;
42332;SDS011;27984;51.476;5.702;2024-03-17T05:41:04;19.83;;;14.65;;
42332;SDS011;27984;51.476;5.702;2024-03-17T05:43:31;19.60;;;14.25;;
42332;SDS011;27984;51.476;5.702;2024-03-17T05:46:12;17.05;;;13.48;;
42332;SDS011;27984;51.476;5.702;2024-03-17T05:51:08;19.63;;;13.13;;
42332;SDS011;27984;51.476;5.702;2024-03-17T05:53:34;21.10;;;13.52;;
42332;SDS011;27984;51.476;5.702;2024-03-17T05:56:01;20.27;;;14.70;;
42332;SDS011;27984;51.476;5.702;2024-03-17T05:58:27;20.13;;;14.38;;
42332;SDS011;27984;51.476;5.702;2024-03-17T06:00:53;23.63;;;14.65;;
42332;SDS011;27984;51.476;5.702;2024-03-17T06:03:19;19.27;;;13.98;;
42332;SDS011;27984;51.476;5.702;2024-03-17T06:05:46;20.85;;;14.35;;
42332;SDS011;27984;51.476;5.702;2024-03-17T06:08:13;22.23;;;14.05;;
42332;SDS011;27984;51.476;5.702;2024-03-17T06:10:42;21.95;;;14.02;;
42332;SDS011;27984;51.476;5.702;2024-03-17T06:13:09;20.65;;;13.57;;
42332;SDS011;27984;51.476;5.702;2024-03-17T06:15:38;19.88;;;13.00;;
42332;SDS011;27984;51.476;5.702;2024-03-17T06:18:04;21.27;;;12.70;;
42332;SDS011;27984;51.476;5.702;2024-03-17T06:20:33;18.60;;;13.05;;
42332;SDS011;27984;51.476;5.702;2024-03-17T06:22:59;17.60;;;12.98;;
42332;SDS011;27984;51.476;5.702;2024-03-17T06:25:25;18.23;;;13.13;;
42332;SDS011;27984;51.476;5.702;2024-03-17T06:27:53;21.02;;;13.00;;
42332;SDS011;27984;51.476;5.702;2024-03-17T06:30:19;18.58;;;12.35;;
42332;SDS011;27984;51.476;5.702;2024-03-17T06:32:46;16.00;;;11.95;;
42332;SDS011;27984;51.476;5.702;2024-03-17T06:35:12;17.67;;;12.43;;
42332;SDS011;27984;51.476;5.702;2024-03-17T06:37:43;15.27;;;11.80;;
42332;SDS011;27984;51.476;5.702;2024-03-17T06:40:10;18.67;;;11.75;;
42332;SDS011;27984;51.476;5.702;2024-03-17T06:42:38;16.48;;;11.55;;
42332;SDS011;27984;51.476;5.702;2024-03-17T06:45:05;18.00;;;11.88;;
42332;SDS011;27984;51.476;5.702;2024-03-17T06:47:33;13.77;;;10.95;;
42332;SDS011;27984;51.476;5.702;2024-03-17T06:49:59;16.38;;;11.07;;
42332;SDS011;27984;51.476;5.702;2024-03-17T06:52:24;15.43;;;10.30;;
42332;SDS011;27984;51.476;5.702;2024-03-17T06:54:50;16.20;;;11.10;;
42332;SDS011;27984;51.476;5.702;2024-03-17T06:57:16;15.93;;;10.73;;
42332;SDS011;27984;51.476;5.702;2024-03-17T06:59:42;14.70;;;10.13;;
42332;SDS011;27984;51.476;5.702;2024-03-17T07:02:09;14.55;;;10.10;;
42332;SDS011;27984;51.476;5.702;2024-03-17T07:04:38;14.32;;;9.32;;
42332;SDS011;27984;51.476;5.702;2024-03-17T07:07:04;11.30;;;8.82;;
42332;SDS011;27984;51.476;5.702;2024-03-17T07:09:30;12.10;;;8.55;;
42332;SDS011;27984;51.476;5.702;2024-03-17T07:11:56;11.68;;;8.27;;
42332;SDS011;27984;51.476;5.702;2024-03-17T07:14:22;11.30;;;8.48;;
42332;SDS011;27984;51.476;5.702;2024-03-17T07:16:51;11.48;;;8.23;;
42332;SDS011;27984;51.476;5.702;2024-03-17T07:19:17;10.25;;;8.00;;
42332;SDS011;27984;51.476;5.702;2024-03-17T07:21:42;11.45;;;7.95;;
42332;SDS011;27984;51.476;5.702;2024-03-17T07:24:08;10.70;;;6.75;;
42332;SDS011;27984;51.476;5.702;2024-03-17T07:26:34;12.25;;;7.30;;
42332;SDS011;27984;51.476;5.702;2024-03-17T07:29:00;11.35;;;6.63;;
42332;SDS011;27984;51.476;5.702;2024-03-17T07:31:26;10.43;;;6.57;;
42332;SDS011;27984;51.476;5.702;2024-03-17T07:33:52;7.30;;;6.22;;
42332;SDS011;27984;51.476;5.702;2024-03-17T07:36:18;8.82;;;5.57;;
42332;SDS011;27984;51.476;5.702;2024-03-17T07:38:46;8.60;;;5.70;;
42332;SDS011;27984;51.476;5.702;2024-03-17T07:41:12;5.97;;;5.35;;
42332;SDS011;27984;51.476;5.702;2024-03-17T07:43:38;8.02;;;5.68;;
42332;SDS011;27984;51.476;5.702;2024-03-17T07:46:08;6.07;;;4.90;;
42332;SDS011;27984;51.476;5.702;2024-03-17T07:48:37;6.93;;;5.30;;
42332;SDS011;27984;51.476;5.702;2024-03-17T07:51:04;6.97;;;5.40;;
42332;SDS011;27984;51.476;5.702;2024-03-17T07:53:31;6.05;;;5.18;;
42332;SDS011;27984;51.476;5.702;2024-03-17T07:58:23;8.30;;;5.45;;
42332;SDS011;27984;51.476;5.702;2024-03-17T08:00:50;9.40;;;6.05;;
42332;SDS011;27984;51.476;5.702;2024-03-17T08:03:20;7.63;;;5.47;;
42332;SDS011;27984;51.476;5.702;2024-03-17T08:05:49;5.70;;;5.07;;
42332;SDS011;27984;51.476;5.702;2024-03-17T08:08:16;7.28;;;5.03;;
42332;SDS011;27984;51.476;5.702;2024-03-17T08:10:42;7.88;;;5.57;;
42332;SDS011;27984;51.476;5.702;2024-03-17T08:13:08;9.82;;;5.65;;
42332;SDS011;27984;51.476;5.702;2024-03-17T08:15:34;8.20;;;6.03;;
42332;SDS011;27984;51.476;5.702;2024-03-17T08:18:01;9.40;;;6.38;;
42332;SDS011;27984;51.476;5.702;2024-03-17T08:20:28;7.13;;;6.43;;
42332;SDS011;27984;51.476;5.702;2024-03-17T08:22:54;14.82;;;6.82;;
42332;SDS011;27984;51.476;5.702;2024-03-17T08:25:21;7.22;;;6.43;;
42332;SDS011;27984;51.476;5.702;2024-03-17T08:27:47;9.30;;;6.20;;
42332;SDS011;27984;51.476;5.702;2024-03-17T08:30:13;7.20;;;5.93;;
42332;SDS011;27984;51.476;5.702;2024-03-17T08:32:39;7.28;;;6.03;;
42332;SDS011;27984;51.476;5.702;2024-03-17T08:35:05;8.18;;;5.97;;
42332;SDS011;27984;51.476;5.702;2024-03-17T08:37:32;9.15;;;6.15;;
42332;SDS011;27984;51.476;5.702;2024-03-17T08:39:57;6.85;;;5.82;;
42332;SDS011;27984;51.476;5.702;2024-03-17T08:42:23;9.00;;;5.72;;
42332;SDS011;27984;51.476;5.702;2024-03-17T08:44:50;7.75;;;5.82;;
42332;SDS011;27984;51.476;5.702;2024-03-17T08:47:16;10.15;;;6.40;;
42332;SDS011;27984;51.476;5.702;2024-03-17T08:49:42;13.23;;;6.85;;
42332;SDS011;27984;51.476;5.702;2024-03-17T08:52:08;7.72;;;6.30;;
42332;SDS011;27984;51.476;5.702;2024-03-17T08:54:34;9.73;;;6.15;;
42332;SDS011;27984;51.476;5.702;2024-03-17T08:57:00;7.47;;;6.60;;
42332;SDS011;27984;51.476;5.702;2024-03-17T08:59:27;7.38;;;6.55;;
42332;SDS011;27984;51.476;5.702;2024-03-17T09:01:53;9.88;;;6.82;;
42332;SDS011;27984;51.476;5.702;2024-03-17T09:04:19;9.77;;;6.60;;
42332;SDS011;27984;51.476;5.702;2024-03-17T09:06:45;8.73;;;6.28;;
42332;SDS011;27984;51.476;5.702;2024-03-17T09:09:11;10.18;;;6.43;;
42332;SDS011;27984;51.476;5.702;2024-03-17T09:11:39;9.95;;;6.78;;
42332;SDS011;27984;51.476;5.702;2024-03-17T09:14:05;8.57;;;6.47;;
42332;SDS011;27984;51.476;5.702;2024-03-17T09:16:31;8.23;;;5.80;;
42332;SDS011;27984;51.476;5.702;2024-03-17T09:18:57;7.95;;;6.03;;
42332;SDS011;27984;51.476;5.702;2024-03-17T09:21:23;6.55;;;5.53;;
42332;SDS011;27984;51.476;5.702;2024-03-17T09:23:49;10.18;;;6.03;;
42332;SDS011;27984;51.476;5.702;2024-03-17T09:26:15;8.45;;;5.63;;
42332;SDS011;27984;51.476;5.702;2024-03-17T09:28:42;10.65;;;5.80;;
42332;SDS011;27984;51.476;5.702;2024-03-17T09:31:11;7.80;;;5.55;;
42332;SDS011;27984;51.476;5.702;2024-03-17T09:33:37;7.90;;;5.03;;
42332;SDS011;27984;51.476;5.702;2024-03-17T09:36:07;7.10;;;5.25;;
42332;SDS011;27984;51.476;5.702;2024-03-17T09:38:34;6.93;;;5.63;;
42332;SDS011;27984;51.476;5.702;2024-03-17T09:41:00;8.95;;;5.63;;
42332;SDS011;27984;51.476;5.702;2024-03-17T09:43:26;6.10;;;4.97;;
42332;SDS011;27984;51.476;5.702;2024-03-17T09:45:53;6.28;;;5.68;;
42332;SDS011;27984;51.476;5.702;2024-03-17T09:48:22;9.02;;;5.30;;
42332;SDS011;27984;51.476;5.702;2024-03-17T09:50:53;7.93;;;4.95;;
42332;SDS011;27984;51.476;5.702;2024-03-17T09:53:23;8.15;;;5.90;;
42332;SDS011;27984;51.476;5.702;2024-03-17T09:55:50;7.07;;;4.90;;
42332;SDS011;27984;51.476;5.702;2024-03-17T09:58:16;9.32;;;5.10;;
42332;SDS011;27984;51.476;5.702;2024-03-17T10:00:43;7.30;;;4.85;;
42332;SDS011;27984;51.476;5.702;2024-03-17T10:03:08;10.18;;;5.65;;
42332;SDS011;27984;51.476;5.702;2024-03-17T10:05:34;6.90;;;5.07;;
42332;SDS011;27984;51.476;5.702;2024-03-17T10:08:00;7.28;;;5.45;;
42332;SDS011;27984;51.476;5.702;2024-03-17T10:10:27;7.43;;;5.50;;
42332;SDS011;27984;51.476;5.702;2024-03-17T10:12:53;8.02;;;4.78;;
42332;SDS011;27984;51.476;5.702;2024-03-17T10:15:19;8.02;;;5.40;;
42332;SDS011;27984;51.476;5.702;2024-03-17T10:17:46;7.05;;;5.03;;
42332;SDS011;27984;51.476;5.702;2024-03-17T10:20:21;8.43;;;5.50;;
42332;SDS011;27984;51.476;5.702;2024-03-17T10:22:57;7.97;;;6.00;;
42332;SDS011;27984;51.476;5.702;2024-03-17T10:25:24;9.23;;;6.00;;
42332;SDS011;27984;51.476;5.702;2024-03-17T10:27:50;8.43;;;5.63;;
42332;SDS011;27984;51.476;5.702;2024-03-17T10:30:18;8.05;;;5.88;;
42332;SDS011;27984;51.476;5.702;2024-03-17T10:32:45;9.13;;;5.90;;
42332;SDS011;27984;51.476;5.702;2024-03-17T10:37:58;8.35;;;6.43;;
42332;SDS011;27984;51.476;5.702;2024-03-17T10:40:25;8.27;;;5.85;;
42332;SDS011;27984;51.476;5.702;2024-03-17T10:42:51;8.82;;;6.07;;
42332;SDS011;27984;51.476;5.702;2024-03-17T10:45:17;6.72;;;5.50;;
42332;SDS011;27984;51.476;5.702;2024-03-17T10:47:47;6.43;;;5.55;;
42332;SDS011;27984;51.476;5.702;2024-03-17T10:52:47;7.70;;;5.88;;
42332;SDS011;27984;51.476;5.702;2024-03-17T10:55:20;10.93;;;6.05;;
42332;SDS011;27984;51.476;5.702;2024-03-17T10:57:47;8.65;;;6.05;;
42332;SDS011;27984;51.476;5.702;2024-03-17T11:00:14;7.85;;;6.20;;
42332;SDS011;27984;51.476;5.702;2024-03-17T11:02:46;10.90;;;5.93;;
42332;SDS011;27984;51.476;5.702;2024-03-17T11:07:45;11.13;;;6.30;;
42332;SDS011;27984;51.476;5.702;2024-03-17T11:10:16;9.18;;;5.90;;
42332;SDS011;27984;51.476;5.702;2024-03-17T11:20:37;7.75;;;5.63;;
42332;SDS011;27984;51.476;5.702;2024-03-17T11:23:04;8.82;;;6.20;;
42332;SDS011;27984;51.476;5.702;2024-03-17T11:25:39;7.03;;;5.95;;
42332;SDS011;27984;51.476;5.702;2024-03-17T11:28:09;7.95;;;6.03;;
42332;SDS011;27984;51.476;5.702;2024-03-17T11:35:52;8.93;;;6.28;;
42332;SDS011;27984;51.476;5.702;2024-03-17T11:38:50;13.65;;;5.97;;
42332;SDS011;27984;51.476;5.702;2024-03-17T11:46:45;11.17;;;6.27;;
42332;SDS011;27984;51.476;5.702;2024-03-17T11:49:22;9.20;;;6.00;;
42332;SDS011;27984;51.476;5.702;2024-03-17T11:51:49;8.07;;;5.97;;
42332;SDS011;27984;51.476;5.702;2024-03-17T11:54:16;7.70;;;5.68;;
42332;SDS011;27984;51.476;5.702;2024-03-17T11:56:53;7.18;;;5.57;;
42332;SDS011;27984;51.476;5.702;2024-03-17T11:59:19;6.20;;;5.60;;
42332;SDS011;27984;51.476;5.702;2024-03-17T12:01:46;6.80;;;5.40;;
42332;SDS011;27984;51.476;5.702;2024-03-17T12:04:16;7.07;;;5.85;;
42332;SDS011;27984;51.476;5.702;2024-03-17T12:06:47;8.90;;;5.53;;
42332;SDS011;27984;51.476;5.702;2024-03-17T12:09:20;10.70;;;5.57;;
42332;SDS011;27984;51.476;5.702;2024-03-17T12:11:47;10.00;;;5.93;;
42332;SDS011;27984;51.476;5.702;2024-03-17T12:14:14;12.70;;;5.60;;
42332;SDS011;27984;51.476;5.702;2024-03-17T12:16:47;10.88;;;5.90;;
42332;SDS011;27984;51.476;5.702;2024-03-17T12:19:14;8.07;;;5.72;;
42332;SDS011;27984;51.476;5.702;2024-03-17T12:21:43;13.05;;;6.25;;
42332;SDS011;27984;51.476;5.702;2024-03-17T12:24:14;7.15;;;5.47;;
42332;SDS011;27984;51.476;5.702;2024-03-17T12:26:40;7.65;;;5.82;;
42332;SDS011;27984;51.476;5.702;2024-03-17T12:29:21;8.65;;;5.82;;
42332;SDS011;27984;51.476;5.702;2024-03-17T12:31:47;10.70;;;5.50;;
42332;SDS011;27984;51.476;5.702;2024-03-17T12:34:13;8.35;;;5.60;;
42332;SDS011;27984;51.476;5.702;2024-03-17T12:36:39;10.88;;;5.90;;
42332;SDS011;27984;51.476;5.702;2024-03-17T12:42:08;10.02;;;5.63;;
42332;SDS011;27984;51.476;5.702;2024-03-17T12:44:35;8.75;;;5.63;;
42332;SDS011;27984;51.476;5.702;2024-03-17T12:47:08;7.57;;;5.70;;
42332;SDS011;27984;51.476;5.702;2024-03-17T12:49:35;9.27;;;5.95;;
42332;SDS011;27984;51.476;5.702;2024-03-17T12:52:01;10.98;;;5.88;;
42332;SDS011;27984;51.476;5.702;2024-03-17T12:54:27;10.93;;;6.03;;
42332;SDS011;27984;51.476;5.702;2024-03-17T12:57:06;8.80;;;6.30;;
42332;SDS011;27984;51.476;5.702;2024-03-17T12:59:51;9.32;;;6.28;;
42332;SDS011;27984;51.476;5.702;2024-03-17T13:02:42;7.97;;;6.15;;
42332;SDS011;27984;51.476;5.702;2024-03-17T13:05:15;8.63;;;6.65;;
42332;SDS011;27984;51.476;5.702;2024-03-17T13:07:45;9.32;;;6.20;;
42332;SDS011;27984;51.476;5.702;2024-03-17T13:10:12;8.25;;;6.20;;
42332;SDS011;27984;51.476;5.702;2024-03-17T13:12:39;8.45;;;6.05;;
42332;SDS011;27984;51.476;5.702;2024-03-17T13:15:05;9.57;;;5.78;;
42332;SDS011;27984;51.476;5.702;2024-03-17T13:17:31;8.35;;;6.00;;
42332;SDS011;27984;51.476;5.702;2024-03-17T13:19:59;11.27;;;6.10;;
42332;SDS011;27984;51.476;5.702;2024-03-17T13:22:25;7.85;;;5.88;;
42332;SDS011;27984;51.476;5.702;2024-03-17T13:24:51;12.63;;;6.05;;
42332;SDS011;27984;51.476;5.702;2024-03-17T13:27:17;8.60;;;5.85;;
42332;SDS011;27984;51.476;5.702;2024-03-17T13:29:47;10.10;;;5.72;;
42332;SDS011;27984;51.476;5.702;2024-03-17T13:32:13;7.82;;;6.03;;
42332;SDS011;27984;51.476;5.702;2024-03-17T13:34:39;9.43;;;6.60;;
42332;SDS011;27984;51.476;5.702;2024-03-17T13:37:05;8.32;;;5.85;;
42332;SDS011;27984;51.476;5.702;2024-03-17T13:39:31;7.90;;;5.90;;
42332;SDS011;27984;51.476;5.702;2024-03-17T13:41:57;6.93;;;5.40;;
42332;SDS011;27984;51.476;5.702;2024-03-17T13:44:27;8.45;;;5.28;;
42332;SDS011;27984;51.476;5.702;2024-03-17T13:46:54;7.05;;;4.82;;
42332;SDS011;27984;51.476;5.702;2024-03-17T13:49:20;5.80;;;4.72;;
42332;SDS011;27984;51.476;5.702;2024-03-17T13:51:47;6.95;;;4.20;;
42332;SDS011;27984;51.476;5.702;2024-03-17T13:54:13;6.00;;;3.78;;
42332;SDS011;27984;51.476;5.702;2024-03-17T13:56:39;6.32;;;4.57;;
42332;SDS011;27984;51.476;5.702;2024-03-17T13:59:05;8.13;;;4.38;;
42332;SDS011;27984;51.476;5.702;2024-03-17T14:01:31;7.43;;;3.90;;
42332;SDS011;27984;51.476;5.702;2024-03-17T14:03:57;5.55;;;4.15;;
42332;SDS011;27984;51.476;5.702;2024-03-17T14:06:23;7.22;;;3.75;;
42332;SDS011;27984;51.476;5.702;2024-03-17T14:08:49;8.10;;;3.60;;
42332;SDS011;27984;51.476;5.702;2024-03-17T14:11:15;9.25;;;3.92;;
42332;SDS011;27984;51.476;5.702;2024-03-17T14:13:41;7.60;;;3.42;;
42332;SDS011;27984;51.476;5.702;2024-03-17T14:16:07;6.80;;;4.22;;
42332;SDS011;27984;51.476;5.702;2024-03-17T14:18:33;5.18;;;3.80;;
42332;SDS011;27984;51.476;5.702;2024-03-17T14:21:00;7.38;;;3.95;;
42332;SDS011;27984;51.476;5.702;2024-03-17T14:23:26;20.42;;;14.95;;
42332;SDS011;27984;51.476;5.702;2024-03-17T14:25:55;6.28;;;3.63;;
42332;SDS011;27984;51.476;5.702;2024-03-17T14:28:24;6.15;;;3.92;;
42332;SDS011;27984;51.476;5.702;2024-03-17T14:30:50;5.43;;;3.63;;
42332;SDS011;27984;51.476;5.702;2024-03-17T14:33:18;4.70;;;3.40;;
42332;SDS011;27984;51.476;5.702;2024-03-17T14:35:44;6.88;;;3.78;;
42332;SDS011;27984;51.476;5.702;2024-03-17T14:38:10;7.47;;;4.25;;
42332;SDS011;27984;51.476;5.702;2024-03-17T14:40:39;5.68;;;4.05;;
42332;SDS011;27984;51.476;5.702;2024-03-17T14:43:05;9.57;;;4.97;;
42332;SDS011;27984;51.476;5.702;2024-03-17T14:45:31;6.32;;;4.00;;
42332;SDS011;27984;51.476;5.702;2024-03-17T14:47:59;6.90;;;4.70;;
42332;SDS011;27984;51.476;5.702;2024-03-17T14:50:25;5.95;;;4.00;;
42332;SDS011;27984;51.476;5.702;2024-03-17T14:52:52;8.88;;;4.25;;
42332;SDS011;27984;51.476;5.702;2024-03-17T14:55:18;8.75;;;4.00;;
42332;SDS011;27984;51.476;5.702;2024-03-17T14:57:44;7.07;;;4.13;;
42332;SDS011;27984;51.476;5.702;2024-03-17T15:00:11;9.45;;;4.32;;
42332;SDS011;27984;51.476;5.702;2024-03-17T15:02:48;6.07;;;4.15;;
42332;SDS011;27984;51.476;5.702;2024-03-17T15:05:23;6.97;;;4.20;;
42332;SDS011;27984;51.476;5.702;2024-03-17T15:07:51;5.50;;;3.67;;
42332;SDS011;27984;51.476;5.702;2024-03-17T15:10:17;5.43;;;3.45;;